createdAt,value
2018-07-01T00:00:20.855Z,0
2018-07-01T00:01:28.910Z,0
2018-07-01T00:02:36.954Z,0
2018-07-01T00:03:57.788Z,0
2018-07-01T00:04:53.117Z,0
2018-07-01T00:06:01.177Z,0
2018-07-01T00:07:09.250Z,0
2018-07-01T00:08:17.300Z,0
2018-07-01T00:09:25.387Z,0
2018-07-01T00:10:33.454Z,0
2018-07-01T00:11:41.526Z,0
2018-07-01T00:12:49.590Z,0
2018-07-01T00:13:57.631Z,0
2018-07-01T00:15:07.093Z,0
2018-07-01T00:16:14.421Z,0
2018-07-01T00:17:24.894Z,0
2018-07-01T00:18:30.137Z,0
2018-07-01T00:19:38.211Z,0
2018-07-01T00:20:46.257Z,0
2018-07-01T00:21:54.335Z,0
2018-07-01T00:23:02.398Z,0
2018-07-01T00:24:23.210Z,0
2018-07-01T00:25:18.540Z,0
2018-07-01T00:26:26.602Z,0
2018-07-01T00:27:34.674Z,0
2018-07-01T00:28:42.731Z,0
2018-07-01T00:29:50.805Z,0
2018-07-01T00:30:58.869Z,0
2018-07-01T00:32:06.909Z,0
2018-07-01T00:33:14.997Z,0
2018-07-01T00:34:23.059Z,0
2018-07-01T00:35:31.134Z,0
2018-07-01T00:36:39.221Z,0
2018-07-01T00:37:47.248Z,0
2018-07-01T00:38:55.338Z,0
2018-07-01T00:40:03.408Z,0
2018-07-01T00:41:13.937Z,0
2018-07-01T00:43:37.057Z,0
2018-07-01T00:44:51.416Z,0
2018-07-01T00:46:04.123Z,0
2018-07-01T00:47:10.764Z,0
2018-07-01T00:48:18.836Z,0
2018-07-01T00:49:26.894Z,0
2018-07-01T00:50:34.967Z,0
2018-07-01T00:51:43.044Z,0
2018-07-01T00:52:51.098Z,0
2018-07-01T00:53:59.189Z,0
2018-07-01T00:55:07.226Z,0
2018-07-01T00:56:15.302Z,0
2018-07-01T00:57:23.357Z,0
2018-07-01T00:58:31.440Z,0
2018-07-01T00:59:39.515Z,0
2018-07-01T01:00:47.542Z,0
2018-07-01T01:01:55.641Z,0
2018-07-01T01:03:03.760Z,0
2018-07-01T01:04:11.757Z,0
2018-07-01T01:05:19.846Z,0
2018-07-01T01:06:27.906Z,0
2018-07-01T01:07:35.987Z,0
2018-07-01T01:08:44.043Z,0
2018-07-01T01:09:52.107Z,0
2018-07-01T01:11:00.175Z,0
2018-07-01T01:12:08.248Z,0
2018-07-01T01:13:16.318Z,0
2018-07-01T01:14:24.383Z,0
2018-07-01T01:15:32.457Z,0
2018-07-01T01:16:40.531Z,0
2018-07-01T01:17:48.591Z,0
2018-07-01T01:18:56.650Z,0
2018-07-01T01:20:04.721Z,0
2018-07-01T01:21:12.791Z,0
2018-07-01T01:22:20.854Z,0
2018-07-01T01:23:28.921Z,0
2018-07-01T01:24:36.956Z,0
2018-07-01T01:25:45.074Z,0
2018-07-01T01:26:53.133Z,0
2018-07-01T01:28:01.213Z,0
2018-07-01T01:29:09.249Z,0
2018-07-01T01:30:17.298Z,0
2018-07-01T01:31:25.398Z,0
2018-07-01T01:32:33.461Z,0
2018-07-01T01:33:41.527Z,0
2018-07-01T01:34:49.593Z,0
2018-07-01T01:35:57.637Z,0
2018-07-01T01:37:05.736Z,0
2018-07-01T01:38:13.790Z,0
2018-07-01T01:39:21.863Z,0
2018-07-01T01:40:29.932Z,0
2018-07-01T01:41:37.994Z,0
2018-07-01T01:42:46.070Z,0
2018-07-01T01:43:54.146Z,0
2018-07-01T01:45:02.197Z,0
2018-07-01T01:46:10.263Z,0
2018-07-01T01:47:18.341Z,0
2018-07-01T01:48:26.412Z,0
2018-07-01T01:49:34.466Z,0
2018-07-01T01:50:42.530Z,0
2018-07-01T01:51:50.590Z,0
2018-07-01T01:52:58.657Z,0
2018-07-01T01:54:06.707Z,0
2018-07-01T01:55:14.799Z,0
2018-07-01T01:56:22.858Z,0
2018-07-01T01:57:30.922Z,0
2018-07-01T01:58:38.988Z,0
2018-07-01T01:59:47.017Z,0
2018-07-01T02:00:55.146Z,0
2018-07-01T02:02:03.199Z,0
2018-07-01T02:03:11.260Z,0
2018-07-01T02:04:19.323Z,0
2018-07-01T02:05:27.356Z,0
2018-07-01T02:06:35.455Z,0
2018-07-01T02:07:43.532Z,0
2018-07-01T02:08:51.585Z,0
2018-07-01T02:09:59.651Z,0
2018-07-01T02:11:07.703Z,0
2018-07-01T02:12:15.777Z,0
2018-07-01T02:13:23.844Z,0
2018-07-01T02:14:31.908Z,0
2018-07-01T02:15:39.989Z,0
2018-07-01T02:16:48.052Z,0
2018-07-01T02:17:56.109Z,0
2018-07-01T02:19:04.191Z,0
2018-07-01T02:20:12.247Z,0
2018-07-01T02:21:20.320Z,0
2018-07-01T02:22:28.378Z,0
2018-07-01T02:23:36.499Z,0
2018-07-01T02:24:44.513Z,0
2018-07-01T02:25:52.572Z,0
2018-07-01T02:27:00.641Z,0
2018-07-01T02:28:08.725Z,0
2018-07-01T02:29:16.782Z,0
2018-07-01T02:30:24.839Z,0
2018-07-01T02:31:32.905Z,0
2018-07-01T02:32:40.984Z,0
2018-07-01T02:33:49.050Z,0
2018-07-01T02:34:57.075Z,0
2018-07-01T02:36:05.180Z,0
2018-07-01T02:37:13.239Z,0
2018-07-01T02:38:21.320Z,0
2018-07-01T02:39:29.371Z,0
2018-07-01T02:40:37.407Z,0
2018-07-01T02:41:45.511Z,0
2018-07-01T02:42:53.581Z,0
2018-07-01T02:44:01.635Z,0
2018-07-01T02:45:09.707Z,0
2018-07-01T02:46:17.760Z,0
2018-07-01T02:47:25.835Z,0
2018-07-01T02:48:33.936Z,0
2018-07-01T02:49:41.989Z,0
2018-07-01T02:50:50.033Z,0
2018-07-01T02:51:58.108Z,0
2018-07-01T02:53:06.160Z,0
2018-07-01T02:54:14.248Z,0
2018-07-01T02:55:22.318Z,0
2018-07-01T02:56:30.365Z,0
2018-07-01T02:57:38.438Z,0
2018-07-01T02:58:46.506Z,0
2018-07-01T02:59:54.569Z,0
2018-07-01T03:01:02.637Z,0
2018-07-01T03:02:10.693Z,0
2018-07-01T03:03:18.779Z,0
2018-07-01T03:04:26.811Z,0
2018-07-01T03:05:34.892Z,0
2018-07-01T03:06:42.961Z,0
2018-07-01T03:07:51.031Z,0
2018-07-01T03:08:59.100Z,0
2018-07-01T03:10:07.153Z,0
2018-07-01T03:11:15.218Z,0
2018-07-01T03:12:23.296Z,0
2018-07-01T03:13:31.351Z,0
2018-07-01T03:14:39.429Z,0
2018-07-01T03:15:47.468Z,0
2018-07-01T03:16:55.556Z,0
2018-07-01T03:18:03.620Z,0
2018-07-01T03:19:11.725Z,0
2018-07-01T03:20:19.753Z,0
2018-07-01T03:21:27.812Z,5
2018-07-01T03:22:35.889Z,5
2018-07-01T03:23:43.969Z,5
2018-07-01T03:24:52.032Z,5
2018-07-01T03:26:00.096Z,5
2018-07-01T03:27:08.150Z,5
2018-07-01T03:28:16.235Z,5
2018-07-01T03:29:24.300Z,10
2018-07-01T03:30:32.365Z,10
2018-07-01T03:31:40.429Z,10
2018-07-01T03:32:48.502Z,10
2018-07-01T03:33:56.549Z,10
2018-07-01T03:35:04.613Z,15
2018-07-01T03:36:12.684Z,15
2018-07-01T03:37:20.761Z,15
2018-07-01T03:38:28.820Z,15
2018-07-01T03:39:36.875Z,15
2018-07-01T03:40:44.961Z,20
2018-07-01T03:41:53.031Z,20
2018-07-01T03:43:01.092Z,20
2018-07-01T03:44:09.167Z,25
2018-07-01T03:45:17.194Z,25
2018-07-01T03:46:25.296Z,25
2018-07-01T03:47:33.356Z,30
2018-07-01T03:48:41.422Z,30
2018-07-01T03:49:49.505Z,30
2018-07-01T03:50:57.559Z,35
2018-07-01T03:52:05.639Z,35
2018-07-01T03:53:13.712Z,35
2018-07-01T03:54:21.774Z,40
2018-07-01T03:55:29.863Z,40
2018-07-01T03:56:37.888Z,40
2018-07-01T03:57:46.001Z,45
2018-07-01T03:58:54.044Z,45
2018-07-01T04:00:02.146Z,50
2018-07-01T04:01:10.178Z,50
2018-07-01T04:02:18.247Z,50
2018-07-01T04:03:26.302Z,55
2018-07-01T04:04:34.377Z,55
2018-07-01T04:05:42.510Z,60
2018-07-01T04:06:50.499Z,60
2018-07-01T04:07:58.571Z,60
2018-07-01T04:09:06.631Z,65
2018-07-01T04:10:14.697Z,65
2018-07-01T04:11:22.767Z,70
2018-07-01T04:12:30.835Z,70
2018-07-01T04:13:38.905Z,75
2018-07-01T04:14:46.940Z,75
2018-07-01T04:15:55.038Z,75
2018-07-01T04:17:03.089Z,80
2018-07-01T04:18:11.166Z,80
2018-07-01T04:19:19.230Z,85
2018-07-01T04:20:27.271Z,85
2018-07-01T04:21:35.370Z,90
2018-07-01T04:22:43.432Z,90
2018-07-01T04:23:51.498Z,90
2018-07-01T04:24:59.572Z,95
2018-07-01T04:26:07.601Z,95
2018-07-01T04:27:15.699Z,95
2018-07-01T04:28:23.776Z,100
2018-07-01T04:29:31.824Z,100
2018-07-01T04:30:39.902Z,105
2018-07-01T04:31:47.967Z,105
2018-07-01T04:32:56.019Z,110
2018-07-01T04:34:04.085Z,115
2018-07-01T04:35:12.169Z,115
2018-07-01T04:36:20.220Z,115
2018-07-01T04:37:28.289Z,120
2018-07-01T04:38:36.361Z,120
2018-07-01T04:39:44.425Z,125
2018-07-01T04:40:52.493Z,125
2018-07-01T04:42:00.554Z,130
2018-07-01T04:43:08.625Z,130
2018-07-01T04:44:16.677Z,135
2018-07-01T04:45:24.748Z,135
2018-07-01T04:46:32.832Z,135
2018-07-01T04:47:40.933Z,140
2018-07-01T04:48:48.943Z,140
2018-07-01T04:49:56.997Z,145
2018-07-01T04:51:05.073Z,145
2018-07-01T04:52:13.145Z,150
2018-07-01T04:53:21.209Z,150
2018-07-01T04:54:29.293Z,150
2018-07-01T04:55:37.319Z,155
2018-07-01T04:56:45.420Z,155
2018-07-01T04:57:53.485Z,160
2018-07-01T04:59:01.556Z,160
2018-07-01T05:00:09.617Z,160
2018-07-01T05:01:17.662Z,160
2018-07-01T05:02:25.794Z,165
2018-07-01T05:03:33.815Z,165
2018-07-01T05:04:41.878Z,165
2018-07-01T05:05:49.948Z,170
2018-07-01T05:06:58.006Z,170
2018-07-01T05:08:06.084Z,200
2018-07-01T05:09:14.134Z,185
2018-07-01T05:10:22.196Z,175
2018-07-01T05:11:30.279Z,185
2018-07-01T05:12:38.355Z,205
2018-07-01T05:13:46.425Z,220
2018-07-01T05:14:54.485Z,180
2018-07-01T05:16:02.539Z,180
2018-07-01T05:17:10.644Z,180
2018-07-01T05:18:18.680Z,185
2018-07-01T05:19:26.736Z,185
2018-07-01T05:20:34.818Z,190
2018-07-01T05:21:42.905Z,190
2018-07-01T05:22:51.590Z,190
2018-07-01T05:23:59.009Z,195
2018-07-01T05:25:07.045Z,195
2018-07-01T05:26:15.156Z,195
2018-07-01T05:27:23.224Z,195
2018-07-01T05:28:31.277Z,195
2018-07-01T05:29:39.337Z,195
2018-07-01T05:30:47.387Z,200
2018-07-01T05:31:55.476Z,200
2018-07-01T05:33:03.544Z,210
2018-07-01T05:34:11.929Z,230
2018-07-01T05:35:19.682Z,235
2018-07-01T05:36:28.406Z,210
2018-07-01T05:37:35.815Z,210
2018-07-01T05:38:43.879Z,215
2018-07-01T05:39:51.954Z,215
2018-07-01T05:41:00.008Z,220
2018-07-01T05:42:08.073Z,220
2018-07-01T05:43:16.556Z,220
2018-07-01T05:44:24.431Z,225
2018-07-01T05:45:32.329Z,225
2018-07-01T05:46:41.014Z,230
2018-07-01T05:47:49.058Z,235
2018-07-01T05:48:56.601Z,240
2018-07-01T05:50:04.810Z,240
2018-07-01T05:51:12.621Z,245
2018-07-01T05:52:21.095Z,245
2018-07-01T05:53:28.752Z,245
2018-07-01T05:54:37.427Z,250
2018-07-01T05:55:45.403Z,250
2018-07-01T05:56:52.953Z,250
2018-07-01T05:58:01.009Z,260
2018-07-01T05:59:09.086Z,255
2018-07-01T06:00:17.281Z,255
2018-07-01T06:01:25.493Z,260
2018-07-01T06:02:33.701Z,265
2018-07-01T06:03:41.431Z,265
2018-07-01T06:04:49.409Z,260
2018-07-01T06:05:57.458Z,265
2018-07-01T06:07:06.041Z,265
2018-07-01T06:08:13.955Z,270
2018-07-01T06:09:21.675Z,270
2018-07-01T06:10:30.264Z,270
2018-07-01T06:11:38.385Z,275
2018-07-01T06:12:46.205Z,275
2018-07-01T06:13:53.954Z,275
2018-07-01T06:15:02.019Z,275
2018-07-01T06:16:10.404Z,280
2018-07-01T06:17:18.162Z,280
2018-07-01T06:18:26.231Z,285
2018-07-01T06:19:34.845Z,285
2018-07-01T06:20:42.949Z,290
2018-07-01T06:21:50.441Z,295
2018-07-01T06:22:58.751Z,295
2018-07-01T06:24:06.569Z,300
2018-07-01T06:25:15.337Z,300
2018-07-01T06:26:22.944Z,305
2018-07-01T06:27:30.879Z,310
2018-07-01T06:28:39.437Z,315
2018-07-01T06:29:47.394Z,320
2018-07-01T06:30:54.970Z,325
2018-07-01T06:32:17.730Z,325
2018-07-01T06:33:12.446Z,325
2018-07-01T06:34:21.960Z,325
2018-07-01T06:35:28.337Z,325
2018-07-01T06:36:36.300Z,325
2018-07-01T06:37:46.967Z,325
2018-07-01T06:38:55.055Z,330
2018-07-01T06:40:03.336Z,330
2018-07-01T06:41:11.513Z,335
2018-07-01T06:42:19.471Z,335
2018-07-01T06:43:30.154Z,340
2018-07-01T06:44:36.778Z,340
2018-07-01T06:45:45.125Z,345
2018-07-01T06:46:52.727Z,345
2018-07-01T06:48:01.436Z,345
2018-07-01T06:49:09.331Z,345
2018-07-01T06:50:16.933Z,345
2018-07-01T06:51:25.064Z,350
2018-07-01T06:52:33.661Z,350
2018-07-01T06:53:41.716Z,350
2018-07-01T06:54:49.200Z,350
2018-07-01T06:55:57.247Z,350
2018-07-01T06:57:05.363Z,350
2018-07-01T06:58:13.412Z,350
2018-07-01T06:59:21.467Z,355
2018-07-01T07:00:29.535Z,360
2018-07-01T07:01:37.600Z,370
2018-07-01T07:02:45.689Z,370
2018-07-01T07:03:53.744Z,430
2018-07-01T07:05:01.841Z,440
2018-07-01T07:06:09.885Z,430
2018-07-01T07:07:18.070Z,490
2018-07-01T07:08:26.211Z,655
2018-07-01T07:09:34.358Z,615
2018-07-01T07:10:42.158Z,500
2018-07-01T07:11:50.253Z,645
2018-07-01T07:12:58.293Z,985
2018-07-01T07:14:06.372Z,1400
2018-07-01T07:15:14.439Z,1490
2018-07-01T07:16:24.034Z,1340
2018-07-01T07:17:30.576Z,1790
2018-07-01T07:18:39.325Z,1350
2018-07-01T07:19:46.723Z,665
2018-07-01T07:20:54.804Z,1025
2018-07-01T07:22:02.877Z,840
2018-07-01T07:23:11.432Z,865
2018-07-01T07:24:19.226Z,850
2018-07-01T07:25:27.292Z,800
2018-07-01T07:26:35.416Z,1115
2018-07-01T07:27:43.810Z,640
2018-07-01T07:28:51.534Z,910
2018-07-01T07:29:59.416Z,1060
2018-07-01T07:31:07.930Z,915
2018-07-01T07:32:15.739Z,1725
2018-07-01T07:33:23.594Z,1830
2018-07-01T07:34:31.818Z,1790
2018-07-01T07:35:39.752Z,1855
2018-07-01T07:36:47.814Z,1895
2018-07-01T07:37:55.952Z,1845
2018-07-01T07:39:03.990Z,1895
2018-07-01T07:40:12.060Z,1900
2018-07-01T07:41:20.119Z,1830
2018-07-01T07:42:28.212Z,1935
2018-07-01T07:43:36.302Z,1910
2018-07-01T07:44:44.422Z,1920
2018-07-01T07:45:52.480Z,1930
2018-07-01T07:47:00.506Z,2000
2018-07-01T07:48:08.605Z,2010
2018-07-01T07:49:18.072Z,1905
2018-07-01T07:50:25.346Z,1940
2018-07-01T07:51:33.434Z,1860
2018-07-01T07:52:40.928Z,1850
2018-07-01T07:53:49.571Z,1890
2018-07-01T07:54:57.419Z,1925
2018-07-01T07:56:05.767Z,1970
2018-07-01T07:57:13.231Z,2070
2018-07-01T07:58:21.943Z,2135
2018-07-01T07:59:29.980Z,2115
2018-07-01T08:00:37.458Z,2080
2018-07-01T08:01:45.570Z,2110
2018-07-01T08:02:53.641Z,2130
2018-07-01T08:04:01.716Z,2055
2018-07-01T08:05:09.808Z,2055
2018-07-01T08:06:17.894Z,2165
2018-07-01T08:07:25.999Z,2125
2018-07-01T08:08:34.068Z,2110
2018-07-01T08:09:42.111Z,2090
2018-07-01T08:10:50.216Z,1975
2018-07-01T08:11:58.276Z,2100
2018-07-01T08:13:06.365Z,2190
2018-07-01T08:14:14.454Z,2230
2018-07-01T08:15:22.537Z,2290
2018-07-01T08:16:30.605Z,2275
2018-07-01T08:17:38.690Z,2095
2018-07-01T08:18:46.747Z,2060
2018-07-01T08:19:54.859Z,2220
2018-07-01T08:21:02.932Z,2210
2018-07-01T08:22:10.998Z,2195
2018-07-01T08:23:19.079Z,2335
2018-07-01T08:24:27.141Z,2410
2018-07-01T08:25:35.258Z,2305
2018-07-01T08:26:43.319Z,2335
2018-07-01T08:27:51.401Z,2340
2018-07-01T08:28:59.604Z,2470
2018-07-01T08:30:07.555Z,2480
2018-07-01T08:31:15.650Z,2555
2018-07-01T08:32:23.726Z,2510
2018-07-01T08:33:31.814Z,2440
2018-07-01T08:34:39.934Z,2465
2018-07-01T08:35:47.980Z,2400
2018-07-01T08:36:56.060Z,2340
2018-07-01T08:38:04.139Z,2395
2018-07-01T08:39:12.237Z,2550
2018-07-01T08:40:20.550Z,2575
2018-07-01T08:41:28.392Z,2365
2018-07-01T08:42:36.488Z,2470
2018-07-01T08:43:44.569Z,2530
2018-07-01T08:44:52.648Z,2510
2018-07-01T08:46:00.721Z,2555
2018-07-01T08:47:08.810Z,2520
2018-07-01T08:48:16.865Z,2495
2018-07-01T08:49:24.969Z,2520
2018-07-01T08:50:33.054Z,2545
2018-07-01T08:51:41.138Z,2500
2018-07-01T08:52:49.308Z,2540
2018-07-01T08:53:57.276Z,2560
2018-07-01T08:55:05.390Z,2535
2018-07-01T08:56:13.461Z,2520
2018-07-01T08:57:21.554Z,2535
2018-07-01T08:58:29.638Z,2580
2018-07-01T08:59:37.686Z,2475
2018-07-01T09:00:45.801Z,2560
2018-07-01T09:01:53.871Z,2495
2018-07-01T09:03:02.018Z,2550
2018-07-01T09:04:10.048Z,2510
2018-07-01T09:05:18.139Z,2540
2018-07-01T09:06:26.214Z,2590
2018-07-01T09:07:34.292Z,2595
2018-07-01T09:08:42.401Z,2755
2018-07-01T09:09:50.484Z,2620
2018-07-01T09:10:58.545Z,2595
2018-07-01T09:12:06.619Z,2695
2018-07-01T09:13:14.704Z,2675
2018-07-01T09:14:22.806Z,2715
2018-07-01T09:15:30.868Z,2815
2018-07-01T09:16:38.941Z,2720
2018-07-01T09:17:47.013Z,2745
2018-07-01T09:18:55.134Z,2795
2018-07-01T09:20:03.200Z,2595
2018-07-01T09:21:11.324Z,2610
2018-07-01T09:22:19.383Z,2665
2018-07-01T09:23:27.446Z,2645
2018-07-01T09:24:35.547Z,2285
2018-07-01T09:25:43.625Z,1145
2018-07-01T09:26:51.700Z,430
2018-07-01T09:27:59.798Z,400
2018-07-01T09:29:07.873Z,375
2018-07-01T09:30:15.978Z,365
2018-07-01T09:31:24.035Z,355
2018-07-01T09:32:32.127Z,355
2018-07-01T09:33:40.200Z,355
2018-07-01T09:34:48.271Z,355
2018-07-01T09:35:56.358Z,355
2018-07-01T09:37:04.490Z,360
2018-07-01T09:38:12.520Z,360
2018-07-01T09:39:20.604Z,360
2018-07-01T09:40:28.690Z,360
2018-07-01T09:41:36.771Z,360
2018-07-01T09:42:44.846Z,360
2018-07-01T09:43:52.931Z,360
2018-07-01T09:45:01.017Z,355
2018-07-01T09:46:09.078Z,350
2018-07-01T09:47:17.154Z,350
2018-07-01T09:48:25.241Z,350
2018-07-01T09:49:33.320Z,345
2018-07-01T09:50:41.446Z,345
2018-07-01T09:51:49.483Z,345
2018-07-01T09:52:57.518Z,350
2018-07-01T09:54:05.633Z,340
2018-07-01T09:55:13.696Z,340
2018-07-01T09:56:21.784Z,340
2018-07-01T09:57:29.835Z,340
2018-07-01T09:58:37.928Z,335
2018-07-01T09:59:46.001Z,335
2018-07-01T10:00:54.124Z,330
2018-07-01T10:02:02.154Z,330
2018-07-01T10:03:10.225Z,330
2018-07-01T10:04:18.330Z,330
2018-07-01T10:05:26.391Z,335
2018-07-01T10:06:34.450Z,335
2018-07-01T10:07:42.527Z,335
2018-07-01T10:08:50.603Z,330
2018-07-01T10:09:58.670Z,330
2018-07-01T10:11:06.731Z,330
2018-07-01T10:12:14.835Z,325
2018-07-01T10:13:22.910Z,325
2018-07-01T10:14:30.963Z,325
2018-07-01T10:15:39.051Z,325
2018-07-01T10:16:47.090Z,320
2018-07-01T10:17:55.191Z,320
2018-07-01T10:19:03.281Z,325
2018-07-01T10:20:11.344Z,315
2018-07-01T10:21:19.415Z,315
2018-07-01T10:22:27.579Z,315
2018-07-01T10:23:35.560Z,315
2018-07-01T10:24:43.638Z,315
2018-07-01T10:25:51.716Z,315
2018-07-01T10:26:59.786Z,310
2018-07-01T10:28:07.843Z,310
2018-07-01T10:29:15.924Z,305
2018-07-01T10:30:24.002Z,305
2018-07-01T10:31:32.092Z,310
2018-07-01T10:32:40.147Z,310
2018-07-01T10:33:48.230Z,310
2018-07-01T10:34:56.301Z,315
2018-07-01T10:36:04.383Z,310
2018-07-01T10:37:12.438Z,305
2018-07-01T10:38:20.517Z,305
2018-07-01T10:39:28.592Z,305
2018-07-01T10:40:36.661Z,305
2018-07-01T10:41:44.741Z,300
2018-07-01T10:42:52.811Z,300
2018-07-01T10:44:00.877Z,300
2018-07-01T10:45:08.968Z,300
2018-07-01T10:46:16.999Z,300
2018-07-01T10:47:25.091Z,300
2018-07-01T10:48:33.168Z,300
2018-07-01T10:49:41.246Z,300
2018-07-01T10:50:49.332Z,295
2018-07-01T10:51:57.368Z,295
2018-07-01T10:53:05.475Z,295
2018-07-01T10:54:13.547Z,290
2018-07-01T10:55:21.623Z,300
2018-07-01T10:56:29.682Z,300
2018-07-01T10:57:37.811Z,295
2018-07-01T10:58:45.846Z,295
2018-07-01T10:59:53.900Z,290
2018-07-01T11:01:01.970Z,290
2018-07-01T11:02:10.056Z,290
2018-07-01T11:03:18.129Z,285
2018-07-01T11:04:26.191Z,285
2018-07-01T11:05:34.275Z,285
2018-07-01T11:06:42.350Z,285
2018-07-01T11:07:50.439Z,290
2018-07-01T11:08:58.498Z,285
2018-07-01T11:10:06.555Z,285
2018-07-01T11:11:14.646Z,280
2018-07-01T11:12:22.723Z,280
2018-07-01T11:13:30.792Z,280
2018-07-01T11:14:38.858Z,280
2018-07-01T11:15:46.915Z,280
2018-07-01T11:16:55.016Z,285
2018-07-01T11:18:03.085Z,280
2018-07-01T11:19:11.161Z,275
2018-07-01T11:20:19.244Z,275
2018-07-01T11:21:27.277Z,275
2018-07-01T11:22:35.383Z,275
2018-07-01T11:23:43.434Z,275
2018-07-01T11:24:51.517Z,270
2018-07-01T11:25:59.610Z,270
2018-07-01T11:27:07.924Z,270
2018-07-01T11:28:15.750Z,270
2018-07-01T11:29:23.822Z,265
2018-07-01T11:30:31.894Z,265
2018-07-01T11:31:39.959Z,265
2018-07-01T11:32:48.106Z,260
2018-07-01T11:33:56.108Z,260
2018-07-01T11:35:04.233Z,260
2018-07-01T11:36:12.266Z,260
2018-07-01T11:37:20.463Z,265
2018-07-01T11:38:28.408Z,265
2018-07-01T11:39:36.504Z,260
2018-07-01T11:40:44.570Z,260
2018-07-01T11:41:52.637Z,260
2018-07-01T11:43:00.718Z,260
2018-07-01T11:44:08.782Z,255
2018-07-01T11:45:16.839Z,255
2018-07-01T11:46:24.930Z,255
2018-07-01T11:47:33.007Z,250
2018-07-01T11:48:41.091Z,250
2018-07-01T11:49:49.146Z,250
2018-07-01T11:50:57.194Z,250
2018-07-01T11:52:05.313Z,250
2018-07-01T11:53:13.387Z,250
2018-07-01T11:54:21.436Z,250
2018-07-01T11:55:29.524Z,245
2018-07-01T11:56:37.573Z,245
2018-07-01T11:57:45.687Z,245
2018-07-01T11:58:53.727Z,245
2018-07-01T12:00:01.853Z,245
2018-07-01T12:01:09.892Z,245
2018-07-01T12:02:17.966Z,245
2018-07-01T12:03:26.033Z,240
2018-07-01T12:04:34.095Z,240
2018-07-01T12:05:42.183Z,240
2018-07-01T12:06:50.246Z,240
2018-07-01T12:07:58.318Z,235
2018-07-01T12:09:06.396Z,235
2018-07-01T12:10:14.469Z,235
2018-07-01T12:11:22.550Z,235
2018-07-01T12:12:30.624Z,235
2018-07-01T12:13:38.690Z,235
2018-07-01T12:14:46.747Z,235
2018-07-01T12:15:54.836Z,230
2018-07-01T12:17:02.923Z,230
2018-07-01T12:18:10.978Z,230
2018-07-01T12:19:19.053Z,230
2018-07-01T12:20:27.112Z,230
2018-07-01T12:21:35.215Z,230
2018-07-01T12:22:43.279Z,230
2018-07-01T12:23:51.369Z,225
2018-07-01T12:24:59.436Z,225
2018-07-01T12:26:07.486Z,225
2018-07-01T12:27:15.588Z,225
2018-07-01T12:28:23.658Z,220
2018-07-01T12:29:31.738Z,220
2018-07-01T12:30:39.810Z,220
2018-07-01T12:31:47.870Z,220
2018-07-01T12:32:55.943Z,220
2018-07-01T12:34:04.030Z,215
2018-07-01T12:35:12.084Z,215
2018-07-01T12:36:20.161Z,215
2018-07-01T12:37:28.247Z,210
2018-07-01T12:38:36.319Z,210
2018-07-01T12:39:44.389Z,210
2018-07-01T12:40:52.458Z,210
2018-07-01T12:42:00.553Z,210
2018-07-01T12:43:08.627Z,210
2018-07-01T12:44:16.695Z,210
2018-07-01T12:45:24.760Z,210
2018-07-01T12:46:32.833Z,210
2018-07-01T12:47:40.952Z,205
2018-07-01T12:48:48.981Z,205
2018-07-01T12:49:57.030Z,210
2018-07-01T12:51:05.127Z,205
2018-07-01T12:52:13.186Z,205
2018-07-01T12:53:21.264Z,205
2018-07-01T12:54:29.347Z,200
2018-07-01T12:55:37.389Z,200
2018-07-01T12:56:45.491Z,200
2018-07-01T12:57:53.568Z,200
2018-07-01T12:59:01.645Z,200
2018-07-01T13:00:09.703Z,200
2018-07-01T13:01:17.775Z,200
2018-07-01T13:02:25.917Z,200
2018-07-01T13:03:33.923Z,195
2018-07-01T13:04:41.998Z,195
2018-07-01T13:05:50.074Z,195
2018-07-01T13:06:58.149Z,195
2018-07-01T13:08:06.229Z,195
2018-07-01T13:09:14.292Z,195
2018-07-01T13:10:22.368Z,195
2018-07-01T13:11:30.436Z,200
2018-07-01T13:12:38.514Z,195
2018-07-01T13:13:46.573Z,195
2018-07-01T13:14:54.678Z,195
2018-07-01T13:16:02.734Z,195
2018-07-01T13:17:10.806Z,195
2018-07-01T13:18:18.881Z,190
2018-07-01T13:19:26.928Z,190
2018-07-01T13:20:35.025Z,190
2018-07-01T13:21:43.095Z,190
2018-07-01T13:22:51.178Z,190
2018-07-01T13:23:59.248Z,190
2018-07-01T13:25:07.317Z,195
2018-07-01T13:26:15.402Z,190
2018-07-01T13:27:23.454Z,190
2018-07-01T13:28:31.545Z,190
2018-07-01T13:29:39.606Z,190
2018-07-01T13:30:47.665Z,190
2018-07-01T13:31:55.756Z,185
2018-07-01T13:33:03.835Z,185
2018-07-01T13:34:11.906Z,185
2018-07-01T13:35:19.987Z,185
2018-07-01T13:36:28.079Z,185
2018-07-01T13:37:36.145Z,185
2018-07-01T13:38:44.195Z,185
2018-07-01T13:39:52.298Z,185
2018-07-01T13:41:00.367Z,185
2018-07-01T13:42:08.444Z,185
2018-07-01T13:43:16.503Z,185
2018-07-01T13:44:24.581Z,185
2018-07-01T13:45:32.650Z,185
2018-07-01T13:46:40.742Z,185
2018-07-01T13:47:48.799Z,185
2018-07-01T13:48:56.859Z,180
2018-07-01T13:50:05.023Z,180
2018-07-01T13:51:13.030Z,180
2018-07-01T13:52:21.089Z,180
2018-07-01T13:53:29.164Z,180
2018-07-01T13:54:37.222Z,175
2018-07-01T13:55:45.314Z,175
2018-07-01T13:56:53.494Z,175
2018-07-01T13:58:01.452Z,175
2018-07-01T13:59:09.521Z,175
2018-07-01T14:00:17.577Z,180
2018-07-01T14:01:25.684Z,175
2018-07-01T14:02:33.759Z,175
2018-07-01T14:03:41.855Z,175
2018-07-01T14:04:49.920Z,175
2018-07-01T14:05:57.988Z,175
2018-07-01T14:07:06.055Z,175
2018-07-01T14:08:14.136Z,175
2018-07-01T14:09:22.197Z,170
2018-07-01T14:10:30.276Z,170
2018-07-01T14:11:38.347Z,170
2018-07-01T14:12:46.415Z,170
2018-07-01T14:13:54.507Z,170
2018-07-01T14:15:02.575Z,170
2018-07-01T14:16:10.637Z,170
2018-07-01T14:17:18.748Z,175
2018-07-01T14:18:26.778Z,170
2018-07-01T14:19:34.844Z,170
2018-07-01T14:20:42.935Z,170
2018-07-01T14:21:51.000Z,175
2018-07-01T14:22:59.081Z,175
2018-07-01T14:24:07.127Z,175
2018-07-01T14:25:15.228Z,175
2018-07-01T14:26:23.293Z,170
2018-07-01T14:27:31.369Z,170
2018-07-01T14:28:39.455Z,170
2018-07-01T14:29:47.567Z,170
2018-07-01T14:30:55.589Z,170
2018-07-01T14:32:03.660Z,170
2018-07-01T14:33:11.734Z,165
2018-07-01T14:34:19.806Z,165
2018-07-01T14:35:27.868Z,165
2018-07-01T14:36:35.939Z,165
2018-07-01T14:37:44.022Z,165
2018-07-01T14:38:52.095Z,160
2018-07-01T14:40:00.159Z,160
2018-07-01T14:41:08.232Z,160
2018-07-01T14:42:16.306Z,160
2018-07-01T14:43:24.384Z,160
2018-07-01T14:44:32.442Z,160
2018-07-01T14:45:40.527Z,160
2018-07-01T14:46:48.589Z,155
2018-07-01T14:47:56.656Z,155
2018-07-01T14:49:04.750Z,155
2018-07-01T14:50:12.829Z,155
2018-07-01T14:51:20.888Z,155
2018-07-01T14:52:28.958Z,155
2018-07-01T14:53:37.007Z,155
2018-07-01T14:54:45.151Z,155
2018-07-01T14:55:53.177Z,155
2018-07-01T14:57:01.256Z,155
2018-07-01T14:58:09.321Z,150
2018-07-01T14:59:17.390Z,150
2018-07-01T15:00:25.474Z,150
2018-07-01T15:01:33.554Z,150
2018-07-01T15:02:41.610Z,150
2018-07-01T15:03:49.689Z,150
2018-07-01T15:04:57.756Z,150
2018-07-01T15:06:05.851Z,150
2018-07-01T15:07:13.910Z,150
2018-07-01T15:08:21.998Z,150
2018-07-01T15:09:30.064Z,150
2018-07-01T15:10:38.126Z,150
2018-07-01T15:11:46.205Z,150
2018-07-01T15:12:54.281Z,150
2018-07-01T15:14:02.353Z,150
2018-07-01T15:15:10.429Z,150
2018-07-01T15:16:18.517Z,150
2018-07-01T15:17:26.578Z,150
2018-07-01T15:18:34.634Z,150
2018-07-01T15:19:42.723Z,155
2018-07-01T15:20:50.781Z,150
2018-07-01T15:21:58.921Z,150
2018-07-01T15:23:06.943Z,150
2018-07-01T15:24:15.021Z,150
2018-07-01T15:25:23.083Z,150
2018-07-01T15:26:31.171Z,150
2018-07-01T15:27:39.252Z,150
2018-07-01T15:28:47.289Z,150
2018-07-01T15:29:55.400Z,150
2018-07-01T15:31:03.471Z,150
2018-07-01T15:32:11.531Z,150
2018-07-01T15:33:19.608Z,150
2018-07-01T15:34:27.663Z,145
2018-07-01T15:35:35.766Z,145
2018-07-01T15:36:43.835Z,145
2018-07-01T15:37:51.911Z,145
2018-07-01T15:38:59.980Z,145
2018-07-01T15:40:10.083Z,140
2018-07-01T15:41:16.114Z,145
2018-07-01T15:42:24.183Z,145
2018-07-01T15:43:32.261Z,145
2018-07-01T15:44:40.338Z,145
2018-07-01T15:45:48.405Z,145
2018-07-01T15:46:56.482Z,145
2018-07-01T15:48:04.564Z,145
2018-07-01T15:49:12.622Z,145
2018-07-01T15:50:20.694Z,140